Hugheston, West Virginia
Current Conditions -  °F | °C
As of 11:54 AM on Thursday 23 Oct 2014 (Local Time) from KCRW Reporting Station
Broken Clouds Broken Clouds  
Wind Chill: 53°   Ceiling: 4100
Heat Index: 53°   Visibility: 10mi
Dew Point: 44°   Wind: 3mph
Humidity: 71%   Direction: NA
Pressure: 30.21"   Gusts: NA
Location:  38.21°N, 81.37°W
Report Text: KCRW 231554Z VRB03KT 10SM SCT015 BKN041 12/07 A3021 RMK AO2 SLP231 SCT V BKN T01170067
Loading
Personal Weather Stations






























Interactive Weather Map
Tropical Storm Tracking
New forecast layout! Learn more

10-Day Weather Forecast

Advertisements
Track Severe Weather on mobile